Aeroporto :
LOGIN :

Iscrizione | Disclaimer

   EN    FR    IT 

 










Sommario :    VFR   VFR Marginale   IFR   IFR Intensivo   IFR Molto Intensivo
Visibilità : 
Base nubi : 
>= 8 km
>= 3000ft
5 / 8 km
1000 / 3000 ft
1500m / 5 km
500 / 1000 ft
800 / 1500m
200 / 500 ft
< 800m
< 200 ft
Simboli :   Temporali  Nebbia  Neve Forte  Precipitazioni Forti  Vento > 20 kt
SIGMETs :   Varie  Temporali  Ghiacco  Turbolenza  Onda orograficha  Ceneri Vulcaniche






- Altitudine del aeroporto : 1742 ft
- Codice IATA : SOF


LBSF - Sofia Int.

ULTIMO METAR :
  • 242230Z 16006KT CAVOK M00/M05 Q1021 NOSIG

METARs OBSOLETI :
  • 242200Z 04004KT CAVOK 00/M05 Q1021 NOSIG
  • 242130Z 10003KT 060V140 CAVOK 02/M05 Q1021 NOSIG
  • 242100Z 28007KT CAVOK 05/M05 Q1021 NOSIG
  • 242030Z 28007KT CAVOK 04/M05 Q1021 NOSIG
  • 242000Z 28009KT CAVOK 05/M05 Q1021 NOSIG

TAF TAF LBSF
Valido dal 24 a 18 ore il 25 a 18 ore UTC


241700Z 2418/2518 30018KT CAVOK
BECMG 2420/2422 27010KT
BECMG 2500/2502 VRB04KT



MetMap, La meteo Aeronautica in un colpo d'occhio ! - Copyright ORBIFLY Dicembre 2007 - Disclaimer

ORBIFLY MET'MAP TEAM :

Programmazione e sviluppo : Alexandra Zaïnal
Concezione : Baudouin d'Aumeries
Aiuto per la programmazione : Marc-Olivier Méhu
Supporto tecnico e logistico : Manuel Goepfert
Aiuto per la traduzione : Arnaldo La Scala

Contatto : metmap@orbifly.com




FONTI E CREDITI :

   NOAA